createdAt,value
2023-04-08T00:01:09.224Z,4.63
2023-04-08T00:03:37.137Z,5.03
2023-04-08T00:06:05.387Z,4.83
2023-04-08T00:08:33.217Z,6.90
2023-04-08T00:11:01.136Z,5.77
2023-04-08T00:13:30.440Z,6.10
2023-04-08T00:15:58.436Z,5.63
2023-04-08T00:18:27.108Z,6.03
2023-04-08T00:20:54.809Z,6.25
2023-04-08T00:23:22.557Z,5.57
2023-04-08T00:25:51.009Z,5.37
2023-04-08T00:28:18.743Z,6.07
2023-04-08T00:30:47.831Z,5.90
2023-04-08T00:33:16.581Z,6.37
2023-04-08T00:35:44.331Z,6.23
2023-04-08T00:38:12.163Z,6.97
2023-04-08T00:40:39.977Z,7.10
2023-04-08T00:43:07.719Z,5.97
2023-04-08T00:45:35.581Z,6.47
2023-04-08T00:48:05.745Z,7.00
2023-04-08T00:50:33.501Z,6.70
2023-04-08T00:53:01.271Z,6.17
2023-04-08T00:55:29.163Z,7.37
2023-04-08T00:57:57.213Z,6.70
2023-04-08T01:00:25.375Z,6.67
2023-04-08T01:03:04.259Z,7.30
2023-04-08T01:05:41.518Z,6.30
2023-04-08T01:08:11.282Z,6.70
2023-04-08T01:10:42.856Z,7.30
2023-04-08T01:13:13.083Z,6.63
2023-04-08T01:15:43.340Z,7.47
2023-04-08T01:18:13.450Z,6.90
2023-04-08T01:20:43.677Z,8.00
2023-04-08T01:23:19.163Z,7.70
2023-04-08T01:25:50.583Z,7.93
2023-04-08T01:28:20.126Z,7.47
2023-04-08T01:30:48.811Z,7.87
2023-04-08T01:33:19.263Z,7.00
2023-04-08T01:35:47.218Z,8.07
2023-04-08T01:38:18.005Z,8.07
2023-04-08T01:40:47.059Z,8.10
2023-04-08T01:43:18.537Z,7.10
2023-04-08T01:45:47.731Z,7.70
2023-04-08T01:48:16.269Z,7.50
2023-04-08T01:50:45.498Z,7.93
2023-04-08T01:53:13.633Z,6.33
2023-04-08T01:55:42.779Z,7.80
2023-04-08T01:58:18.200Z,6.60
2023-04-08T02:00:48.371Z,7.00
2023-04-08T02:03:19.835Z,6.47
2023-04-08T02:05:47.975Z,6.67
2023-04-08T02:08:15.777Z,7.10
2023-04-08T02:10:43.480Z,8.47
2023-04-08T02:13:11.237Z,6.80
2023-04-08T02:15:42.999Z,5.90
2023-04-08T02:18:16.910Z,6.37
2023-04-08T02:20:48.612Z,6.47
2023-04-08T02:23:21.566Z,6.50
2023-04-08T02:25:50.947Z,6.60
2023-04-08T02:28:20.656Z,6.67
2023-04-08T02:30:51.549Z,6.87
2023-04-08T02:33:22.221Z,7.47
2023-04-08T02:35:54.511Z,9.20
2023-04-08T02:38:23.915Z,6.97
2023-04-08T02:40:52.116Z,8.17
2023-04-08T02:43:19.842Z,8.17
2023-04-08T02:45:47.732Z,8.30
2023-04-08T02:48:15.478Z,8.70
2023-04-08T02:50:44.503Z,8.10
2023-04-08T02:53:12.937Z,8.80
2023-04-08T02:55:40.696Z,9.80
2023-04-08T02:58:08.457Z,9.43
2023-04-08T03:00:37.189Z,8.90
2023-04-08T03:03:05.061Z,9.57
2023-04-08T03:05:33.150Z,9.80
2023-04-08T03:08:02.234Z,9.87
2023-04-08T03:10:30.259Z,10.40
2023-04-08T03:12:57.993Z,8.60
2023-04-08T03:15:25.755Z,9.90
2023-04-08T03:17:53.469Z,11.10
2023-04-08T03:20:21.249Z,9.63
2023-04-08T03:22:49.322Z,10.43
2023-04-08T03:25:18.514Z,10.80
2023-04-08T03:27:46.286Z,8.50
2023-04-08T03:30:14.296Z,10.97
2023-04-08T03:32:42.250Z,11.30
2023-04-08T03:35:11.047Z,11.10
2023-04-08T03:37:38.744Z,11.27
2023-04-08T03:40:07.737Z,10.50
2023-04-08T03:42:36.836Z,11.40
2023-04-08T03:45:05.021Z,11.47
2023-04-08T03:47:32.739Z,11.23
2023-04-08T03:50:00.566Z,10.37
2023-04-08T03:52:28.254Z,11.00
2023-04-08T03:54:55.956Z,10.80
2023-04-08T03:57:23.641Z,10.20
2023-04-08T03:59:52.721Z,11.57
2023-04-08T04:02:20.510Z,12.10
2023-04-08T04:04:48.276Z,12.47
2023-04-08T04:07:16.413Z,14.27
2023-04-08T04:09:44.113Z,12.80
2023-04-08T04:12:11.810Z,11.80
2023-04-08T04:14:39.522Z,11.63
2023-04-08T04:17:08.557Z,12.83
2023-04-08T04:19:36.725Z,10.60
2023-04-08T04:22:04.412Z,12.50
2023-04-08T04:24:32.145Z,11.67
2023-04-08T04:26:59.835Z,12.60
2023-04-08T04:29:27.550Z,11.70
2023-04-08T04:31:55.241Z,11.57
2023-04-08T04:34:24.295Z,12.23
2023-04-08T04:36:51.981Z,13.33
2023-04-08T04:39:19.691Z,12.20
2023-04-08T04:41:49.024Z,12.47
2023-04-08T04:44:16.905Z,12.10
2023-04-08T04:46:44.717Z,12.50
2023-04-08T04:49:12.530Z,11.67
2023-04-08T04:51:41.590Z,10.30
2023-04-08T04:54:09.312Z,12.00
2023-04-08T04:56:37.027Z,11.13
2023-04-08T04:59:05.819Z,11.30
2023-04-08T05:01:33.647Z,10.50
2023-04-08T05:04:01.432Z,11.30
2023-04-08T05:06:29.243Z,11.20
2023-04-08T05:08:58.274Z,10.87
2023-04-08T05:11:26.114Z,10.80
2023-04-08T05:13:53.848Z,10.07
2023-04-08T05:16:21.599Z,12.60
2023-04-08T05:18:49.525Z,9.50
2023-04-08T05:21:17.501Z,9.87
2023-04-08T05:23:45.262Z,10.60
2023-04-08T05:26:16.324Z,10.43
2023-04-08T05:28:44.271Z,10.70
2023-04-08T05:31:12.389Z,11.03
2023-04-08T05:33:40.370Z,11.30
2023-04-08T05:36:08.315Z,10.33
2023-04-08T05:38:36.060Z,10.67
2023-04-08T05:41:03.793Z,10.37
2023-04-08T05:43:33.953Z,10.77
2023-04-08T05:46:01.671Z,11.63
2023-04-08T05:48:29.363Z,11.23
2023-04-08T05:50:57.094Z,10.47
2023-04-08T05:53:25.359Z,13.30
2023-04-08T05:55:53.092Z,11.57
2023-04-08T05:58:20.809Z,10.80
2023-04-08T06:00:49.875Z,10.90
2023-04-08T06:03:20.265Z,11.70
2023-04-08T06:05:48.448Z,13.18
2023-04-08T06:08:16.320Z,11.73
2023-04-08T06:10:50.017Z,10.80
2023-04-08T06:13:17.972Z,10.00
2023-04-08T06:15:45.711Z,11.30
2023-04-08T06:18:14.765Z,10.50
2023-04-08T06:20:42.464Z,10.33
2023-04-08T06:23:10.273Z,14.70
2023-04-08T06:25:38.039Z,12.77
2023-04-08T06:28:05.914Z,12.07
2023-04-08T06:30:33.645Z,11.80
2023-04-08T06:33:01.418Z,10.90
2023-04-08T06:35:31.855Z,10.83
2023-04-08T06:38:00.349Z,11.80
2023-04-08T06:40:28.164Z,10.90
2023-04-08T06:42:55.943Z,10.50
2023-04-08T06:45:23.942Z,9.37
2023-04-08T06:47:51.769Z,9.20
2023-04-08T06:50:19.483Z,8.67
2023-04-08T06:52:48.635Z,8.57
2023-04-08T06:55:16.519Z,9.10
2023-04-08T06:57:44.204Z,8.33
2023-04-08T07:00:12.746Z,10.50
2023-04-08T07:02:40.651Z,10.32
2023-04-08T07:05:09.059Z,13.33
2023-04-08T07:07:37.426Z,10.70
2023-04-08T07:10:09.667Z,9.30
2023-04-08T07:12:38.624Z,8.57
2023-04-08T07:15:07.548Z,7.60
2023-04-08T07:17:35.305Z,8.10
2023-04-08T07:20:03.061Z,8.33
2023-04-08T07:22:30.860Z,7.87
2023-04-08T07:24:58.632Z,9.77
2023-04-08T07:27:27.676Z,7.90
2023-04-08T07:29:55.925Z,8.27
2023-04-08T07:32:23.704Z,8.80
2023-04-08T07:34:51.761Z,8.97
2023-04-08T07:37:19.501Z,7.80
2023-04-08T07:39:47.278Z,8.10
2023-04-08T07:42:15.000Z,7.10
2023-04-08T07:44:44.103Z,7.53
2023-04-08T07:47:11.872Z,8.97
2023-04-08T07:49:39.806Z,7.60
2023-04-08T07:52:07.883Z,8.77
2023-04-08T07:54:35.734Z,8.27
2023-04-08T07:57:03.560Z,9.47
2023-04-08T07:59:33.448Z,9.00
2023-04-08T08:02:02.629Z,7.23
2023-04-08T08:04:31.043Z,8.03
2023-04-08T08:06:58.942Z,8.40
2023-04-08T08:09:26.670Z,8.10
2023-04-08T08:11:54.413Z,7.03
2023-04-08T08:14:22.338Z,8.23
2023-04-08T08:16:50.589Z,7.20
2023-04-08T08:19:19.661Z,8.50
2023-04-08T08:21:47.411Z,7.40
2023-04-08T08:24:15.260Z,8.50
2023-04-08T08:26:45.047Z,6.40
2023-04-08T08:29:12.750Z,6.20
2023-04-08T08:31:40.612Z,7.37
2023-04-08T08:34:08.475Z,5.83
2023-04-08T08:36:37.593Z,8.30
2023-04-08T08:39:05.585Z,6.07
2023-04-08T08:41:37.676Z,6.50
2023-04-08T08:44:07.587Z,6.00
2023-04-08T08:46:35.786Z,5.27
2023-04-08T08:49:03.729Z,6.13
2023-04-08T08:51:32.711Z,5.50
2023-04-08T08:54:04.879Z,6.10
2023-04-08T08:56:34.425Z,6.37
2023-04-08T08:59:02.322Z,5.87
2023-04-08T09:01:34.677Z,5.90
2023-04-08T09:04:11.114Z,5.97
2023-04-08T09:06:39.084Z,5.70
2023-04-08T09:09:10.429Z,6.17
2023-04-08T09:11:39.722Z,5.70
2023-04-08T09:14:18.070Z,5.90
2023-04-08T09:16:45.887Z,5.83
2023-04-08T09:19:13.860Z,6.10
2023-04-08T09:21:42.310Z,6.00
2023-04-08T09:24:28.682Z,5.63
2023-04-08T09:26:57.170Z,5.63
2023-04-08T09:29:27.104Z,5.53
2023-04-08T09:31:57.569Z,5.23
2023-04-08T09:34:28.551Z,5.10
2023-04-08T09:36:56.918Z,5.40
2023-04-08T09:39:26.307Z,5.23
2023-04-08T09:41:58.974Z,5.67
2023-04-08T09:44:29.527Z,5.67
2023-04-08T09:47:02.762Z,4.93
2023-04-08T09:49:34.799Z,5.70
2023-04-08T09:52:09.278Z,5.27
2023-04-08T09:54:49.073Z,4.77
2023-04-08T09:57:37.928Z,5.20
2023-04-08T10:00:10.812Z,5.67
2023-04-08T10:02:46.643Z,5.90
2023-04-08T10:05:15.404Z,6.33
2023-04-08T10:07:43.326Z,5.97
2023-04-08T10:10:13.052Z,6.00
2023-04-08T10:12:41.156Z,5.90
2023-04-08T10:15:26.192Z,5.67
2023-04-08T10:17:56.354Z,6.70
2023-04-08T10:20:42.439Z,5.43
2023-04-08T10:23:13.369Z,5.27
2023-04-08T10:25:43.474Z,5.90
2023-04-08T10:28:29.860Z,5.90
2023-04-08T10:30:58.575Z,6.33
2023-04-08T10:33:34.516Z,6.43
2023-04-08T10:36:11.339Z,6.63
2023-04-08T10:38:39.514Z,6.27
2023-04-08T10:41:08.639Z,6.40
2023-04-08T10:43:37.001Z,7.10
2023-04-08T10:46:05.569Z,6.63
2023-04-08T10:48:33.354Z,7.13
2023-04-08T10:51:02.195Z,6.40
2023-04-08T10:53:31.387Z,5.90
2023-04-08T10:56:06.839Z,6.83
2023-04-08T10:58:36.312Z,6.43
2023-04-08T11:01:06.358Z,7.03
2023-04-08T11:03:34.925Z,7.20
2023-04-08T11:06:03.404Z,6.83
2023-04-08T11:08:32.269Z,7.67
2023-04-08T11:11:01.236Z,7.50
2023-04-08T11:13:29.138Z,6.40
2023-04-08T11:15:59.298Z,6.40
2023-04-08T11:18:27.466Z,7.60
2023-04-08T11:20:55.906Z,7.93
2023-04-08T11:23:26.425Z,7.23
2023-04-08T11:25:54.622Z,8.40
2023-04-08T11:28:23.114Z,7.90
2023-04-08T11:30:51.247Z,7.47
2023-04-08T11:33:20.510Z,7.53
2023-04-08T11:35:52.454Z,7.50
2023-04-08T11:38:24.186Z,7.60
2023-04-08T11:40:55.499Z,8.00
2023-04-08T11:43:23.471Z,7.53
2023-04-08T11:45:51.548Z,9.10
2023-04-08T11:48:21.156Z,8.47
2023-04-08T11:50:50.681Z,7.43
2023-04-08T11:53:19.569Z,7.47
2023-04-08T11:55:48.393Z,7.57
2023-04-08T11:58:16.434Z,8.07
2023-04-08T12:00:45.577Z,9.00
2023-04-08T12:03:14.089Z,9.87
2023-04-08T12:05:43.491Z,8.07
2023-04-08T12:08:11.200Z,7.63
2023-04-08T12:10:38.984Z,9.17
2023-04-08T12:13:06.728Z,8.67
2023-04-08T12:15:34.657Z,8.20
2023-04-08T12:18:02.430Z,8.07
2023-04-08T12:20:30.333Z,9.20
2023-04-08T12:22:59.384Z,8.87
2023-04-08T12:25:27.645Z,9.30
2023-04-08T12:27:55.517Z,8.93
2023-04-08T12:30:23.249Z,9.33
2023-04-08T12:32:50.985Z,8.80
2023-04-08T12:35:18.744Z,9.70
2023-04-08T12:37:47.132Z,9.83
2023-04-08T12:40:28.707Z,9.33
2023-04-08T12:42:56.463Z,11.97
2023-04-08T12:45:24.432Z,10.27
2023-04-08T12:47:52.189Z,9.60
2023-04-08T12:50:19.932Z,11.68
2023-04-08T12:52:47.732Z,9.60
2023-04-08T12:55:16.238Z,12.60
2023-04-08T12:57:45.351Z,11.17
2023-04-08T13:00:14.350Z,10.47
2023-04-08T13:02:42.648Z,11.50
2023-04-08T13:05:10.955Z,10.67
2023-04-08T13:07:38.676Z,11.93
2023-04-08T13:10:07.818Z,9.70
2023-04-08T13:12:35.665Z,11.40
2023-04-08T13:15:06.166Z,10.20
2023-04-08T13:17:34.322Z,11.67
2023-04-08T13:20:02.536Z,11.70
2023-04-08T13:22:30.279Z,11.50
2023-04-08T13:24:58.072Z,10.70
2023-04-08T13:27:25.836Z,11.37
2023-04-08T13:29:53.510Z,9.80
2023-04-08T13:32:22.653Z,12.97
2023-04-08T13:34:50.505Z,12.53
2023-04-08T13:37:21.418Z,11.73
2023-04-08T13:39:49.115Z,11.77
2023-04-08T13:42:16.808Z,13.27
2023-04-08T13:44:44.528Z,11.70
2023-04-08T13:47:12.507Z,13.40
2023-04-08T13:49:43.282Z,12.07
2023-04-08T13:52:11.330Z,13.23
2023-04-08T13:54:39.004Z,14.07
2023-04-08T13:57:17.993Z,13.20
2023-04-08T13:59:45.675Z,14.50
2023-04-08T14:02:13.462Z,12.80
2023-04-08T14:04:43.210Z,12.80
2023-04-08T14:07:15.748Z,12.33
2023-04-08T14:09:43.923Z,11.83
2023-04-08T14:12:11.712Z,12.07
2023-04-08T14:14:39.418Z,12.47
2023-04-08T14:17:07.227Z,10.73
2023-04-08T14:19:35.283Z,12.10
2023-04-08T14:22:04.386Z,12.70
2023-04-08T14:24:32.139Z,13.10
2023-04-08T14:26:59.836Z,13.37
2023-04-08T14:29:27.782Z,12.90
2023-04-08T14:31:56.414Z,11.43
2023-04-08T14:34:24.645Z,12.50
2023-04-08T14:36:52.397Z,13.50
2023-04-08T14:39:21.623Z,13.53
2023-04-08T14:41:49.337Z,13.00
2023-04-08T14:44:17.088Z,13.03
2023-04-08T14:46:44.804Z,13.20
2023-04-08T14:49:13.209Z,13.80
2023-04-08T14:51:40.941Z,13.97
2023-04-08T14:54:08.672Z,13.50
2023-04-08T14:56:38.358Z,13.10
2023-04-08T14:59:06.426Z,14.03
2023-04-08T15:01:34.667Z,13.27
2023-04-08T15:04:02.514Z,14.87
2023-04-08T15:06:31.534Z,14.67
2023-04-08T15:08:59.689Z,13.93
2023-04-08T15:11:27.375Z,14.87
2023-04-08T15:13:56.416Z,13.80
2023-04-08T15:16:24.608Z,13.33
2023-04-08T15:18:52.555Z,14.23
2023-04-08T15:21:20.684Z,13.87
2023-04-08T15:23:48.784Z,14.23
2023-04-08T15:26:16.507Z,13.30
2023-04-08T15:28:44.210Z,14.27
2023-04-08T15:31:13.535Z,17.30
2023-04-08T15:33:42.857Z,13.20
2023-04-08T15:36:10.930Z,14.73
2023-04-08T15:38:39.768Z,13.67
2023-04-08T15:41:07.476Z,12.53
2023-04-08T15:43:35.459Z,14.70
2023-04-08T15:46:03.164Z,14.57
2023-04-08T15:48:32.865Z,15.10
2023-04-08T15:51:06.967Z,15.50
2023-04-08T15:53:34.764Z,12.70
2023-04-08T15:56:03.472Z,16.30
2023-04-08T15:58:31.227Z,15.70
2023-04-08T16:00:58.977Z,14.40
2023-04-08T16:03:26.954Z,15.60
2023-04-08T16:05:56.084Z,14.33
2023-04-08T16:08:24.290Z,14.20
2023-04-08T16:10:52.087Z,14.17
2023-04-08T16:13:20.041Z,16.83
2023-04-08T16:15:48.687Z,14.50
2023-04-08T16:18:16.462Z,15.00
2023-04-08T16:20:44.170Z,14.23
2023-04-08T16:23:15.455Z,13.77
2023-04-08T16:25:43.349Z,14.97
2023-04-08T16:28:11.196Z,15.17
2023-04-08T16:30:39.082Z,19.03
2023-04-08T16:33:07.214Z,19.70
2023-04-08T16:35:35.897Z,21.23
2023-04-08T16:38:04.012Z,18.87
2023-04-08T16:40:33.574Z,16.97
2023-04-08T16:43:01.688Z,18.20
2023-04-08T16:45:30.360Z,15.57
2023-04-08T16:47:58.560Z,14.63
2023-04-08T16:50:28.108Z,15.80
2023-04-08T16:52:55.866Z,15.10
2023-04-08T16:55:23.630Z,16.03
2023-04-08T16:57:52.856Z,15.77
2023-04-08T17:00:22.374Z,15.40
2023-04-08T17:02:51.289Z,13.77
2023-04-08T17:05:19.266Z,15.30
2023-04-08T17:07:46.958Z,14.27
2023-04-08T17:10:14.757Z,14.60
2023-04-08T17:12:42.965Z,16.47
2023-04-08T17:15:12.860Z,15.13
2023-04-08T17:17:40.715Z,16.97
2023-04-08T17:20:09.368Z,15.90
2023-04-08T17:22:37.347Z,16.43
2023-04-08T17:25:05.752Z,15.50
2023-04-08T17:27:33.489Z,17.33
2023-04-08T17:30:01.228Z,13.43
2023-04-08T17:32:30.356Z,14.33
2023-04-08T17:34:58.330Z,15.33
2023-04-08T17:37:26.341Z,13.83
2023-04-08T17:39:57.139Z,13.20
2023-04-08T17:42:24.810Z,12.47
2023-04-08T17:44:52.763Z,13.23
2023-04-08T17:47:20.932Z,14.40
2023-04-08T17:49:50.253Z,13.73
2023-04-08T17:52:18.020Z,14.20
2023-04-08T17:54:45.796Z,13.50
2023-04-08T17:57:18.989Z,13.33
2023-04-08T17:59:47.028Z,12.77
2023-04-08T18:02:15.897Z,13.57
2023-04-08T18:04:44.182Z,12.87
2023-04-08T18:07:13.228Z,13.10
2023-04-08T18:09:41.409Z,13.27
2023-04-08T18:12:09.134Z,14.33
2023-04-08T18:14:36.928Z,16.57
2023-04-08T18:17:04.686Z,16.57
2023-04-08T18:19:32.904Z,16.80
2023-04-08T18:22:00.604Z,14.97
2023-04-08T18:24:29.659Z,14.53
2023-04-08T18:27:03.918Z,13.67
2023-04-08T18:29:32.626Z,14.77
2023-04-08T18:32:00.735Z,13.60
2023-04-08T18:34:28.517Z,15.97
2023-04-08T18:37:00.704Z,14.43
2023-04-08T18:39:29.737Z,16.03
2023-04-08T18:41:57.674Z,15.97
2023-04-08T18:44:25.468Z,18.63
2023-04-08T18:46:53.220Z,22.40
2023-04-08T18:49:20.951Z,21.53
2023-04-08T18:52:01.274Z,27.20
2023-04-08T18:54:32.192Z,23.33
2023-04-08T18:57:00.170Z,22.27
2023-04-08T18:59:29.889Z,20.87
2023-04-08T19:01:57.744Z,22.50
2023-04-08T19:04:25.757Z,22.30
2023-04-08T19:06:53.574Z,18.87
2023-04-08T19:09:21.302Z,17.97
2023-04-08T19:11:50.371Z,18.90
2023-04-08T19:14:18.427Z,19.20
2023-04-08T19:16:46.303Z,17.97
2023-04-08T19:19:14.027Z,18.23
2023-04-08T19:21:41.741Z,20.70
2023-04-08T19:24:09.488Z,21.00
2023-04-08T19:26:37.230Z,19.03
2023-04-08T19:29:06.431Z,19.20
2023-04-08T19:31:34.195Z,19.93
2023-04-08T19:34:01.961Z,19.73
2023-04-08T19:36:29.666Z,20.77
2023-04-08T19:38:57.542Z,18.40
2023-04-08T19:41:25.340Z,20.50
2023-04-08T19:43:53.295Z,19.63
2023-04-08T19:46:22.475Z,20.07
2023-04-08T19:48:50.299Z,18.00
2023-04-08T19:51:22.947Z,16.73
2023-04-08T19:53:51.170Z,18.87
2023-04-08T19:56:19.766Z,18.07
2023-04-08T19:58:48.169Z,19.80
2023-04-08T20:01:16.728Z,20.00
2023-04-08T20:03:50.019Z,17.83
2023-04-08T20:06:18.150Z,18.40
2023-04-08T20:08:46.289Z,20.30
2023-04-08T20:11:14.639Z,19.50
2023-04-08T20:13:42.421Z,20.23
2023-04-08T20:16:11.703Z,21.87
2023-04-08T20:18:39.592Z,19.63
2023-04-08T20:21:13.615Z,20.57
2023-04-08T20:23:44.162Z,20.47
2023-04-08T20:26:12.561Z,22.47
2023-04-08T20:28:41.217Z,22.40
2023-04-08T20:31:09.170Z,20.07
2023-04-08T20:33:37.636Z,19.10
2023-04-08T20:36:08.350Z,20.07
2023-04-08T20:38:37.800Z,21.67
2023-04-08T20:41:06.438Z,18.87
2023-04-08T20:43:34.182Z,20.80
2023-04-08T20:46:02.137Z,21.00
2023-04-08T20:48:30.291Z,21.93
2023-04-08T20:50:58.390Z,18.70
2023-04-08T20:53:26.375Z,20.90
2023-04-08T20:55:55.768Z,20.60
2023-04-08T20:58:23.530Z,21.80
2023-04-08T21:00:51.336Z,21.93
2023-04-08T21:03:19.271Z,22.53
2023-04-08T21:05:47.326Z,23.13
2023-04-08T21:08:15.040Z,23.33
2023-04-08T21:10:42.987Z,23.20
2023-04-08T21:13:12.120Z,23.13
2023-04-08T21:15:39.895Z,22.50
2023-04-08T21:18:09.739Z,21.23
2023-04-08T21:20:37.854Z,23.70
2023-04-08T21:23:07.054Z,20.33
2023-04-08T21:25:34.982Z,20.47
2023-04-08T21:28:03.131Z,20.87
2023-04-08T21:30:32.216Z,22.90
2023-04-08T21:32:59.969Z,23.43
2023-04-08T21:35:27.863Z,24.63
2023-04-08T21:37:55.706Z,23.80
2023-04-08T21:40:23.547Z,20.73
2023-04-08T21:42:51.565Z,20.73
2023-04-08T21:45:19.570Z,20.23
2023-04-08T21:47:49.967Z,20.87
2023-04-08T21:50:17.786Z,21.27
2023-04-08T21:52:45.498Z,22.80
2023-04-08T21:55:13.228Z,19.57
2023-04-08T21:57:41.410Z,23.17
2023-04-08T22:00:13.317Z,20.70
2023-04-08T22:02:41.639Z,23.10
2023-04-08T22:05:12.364Z,24.03
2023-04-08T22:07:40.115Z,22.33
2023-04-08T22:10:09.033Z,22.40
2023-04-08T22:12:36.743Z,23.90
2023-04-08T22:15:04.909Z,21.53
2023-04-08T22:17:32.724Z,23.77
2023-04-08T22:20:00.625Z,23.33
2023-04-08T22:22:29.692Z,25.13
2023-04-08T22:24:57.432Z,24.40
2023-04-08T22:27:25.329Z,23.10
2023-04-08T22:29:53.102Z,27.47
2023-04-08T22:32:20.841Z,26.97
2023-04-08T22:34:48.611Z,23.57
2023-04-08T22:37:16.350Z,27.50
2023-04-08T22:39:45.541Z,25.43
2023-04-08T22:42:13.224Z,22.93
2023-04-08T22:44:41.202Z,24.73
2023-04-08T22:47:08.903Z,24.43
2023-04-08T22:49:36.751Z,25.60
2023-04-08T22:52:04.541Z,26.67
2023-04-08T22:54:32.273Z,24.03
2023-04-08T22:57:01.743Z,26.30
2023-04-08T22:59:29.472Z,24.40
2023-04-08T23:01:57.259Z,24.90
2023-04-08T23:04:25.250Z,25.27
2023-04-08T23:06:53.061Z,24.30
2023-04-08T23:09:22.999Z,24.07
2023-04-08T23:11:50.796Z,26.90
2023-04-08T23:14:19.864Z,24.67
2023-04-08T23:16:47.759Z,25.30
2023-04-08T23:19:15.475Z,24.80
2023-04-08T23:22:01.314Z,26.10
2023-04-08T23:24:29.087Z,25.00
2023-04-08T23:26:57.334Z,25.17
2023-04-08T23:29:26.405Z,23.93
2023-04-08T23:31:54.128Z,22.70
2023-04-08T23:34:21.818Z,24.73
2023-04-08T23:36:49.592Z,25.00
2023-04-08T23:39:18.737Z,24.73
2023-04-08T23:41:46.473Z,23.53
2023-04-08T23:44:14.215Z,24.00
2023-04-08T23:46:43.298Z,24.97
2023-04-08T23:49:11.020Z,24.13
2023-04-08T23:51:39.039Z,23.90
2023-04-08T23:54:06.792Z,23.80
2023-04-08T23:56:34.480Z,23.73
2023-04-08T23:59:02.208Z,24.60
